createdAt,value
2023-01-18T00:01:46.254Z,46.00
2023-01-18T00:04:18.923Z,52.80
2023-01-18T00:06:51.504Z,52.70
2023-01-18T00:09:23.927Z,52.30
2023-01-18T00:11:56.273Z,59.40
2023-01-18T00:14:28.565Z,54.60
2023-01-18T00:17:01.043Z,49.00
2023-01-18T00:19:34.078Z,50.00
2023-01-18T00:22:06.452Z,54.40
2023-01-18T00:24:38.773Z,52.50
2023-01-18T00:27:12.835Z,63.30
2023-01-18T00:29:45.440Z,60.20
2023-01-18T00:32:17.812Z,60.10
2023-01-18T00:34:50.703Z,54.10
2023-01-18T00:37:25.145Z,49.10
2023-01-18T00:39:57.477Z,44.80
2023-01-18T00:42:47.667Z,39.50
2023-01-18T00:45:20.237Z,36.60
2023-01-18T00:47:52.711Z,38.30
2023-01-18T00:50:25.427Z,30.60
2023-01-18T00:53:00.471Z,30.40
2023-01-18T00:55:33.225Z,32.70
2023-01-18T00:58:05.591Z,55.90
2023-01-18T01:00:38.821Z,49.50
2023-01-18T01:03:13.197Z,50.50
2023-01-18T01:06:03.489Z,37.20
2023-01-18T01:08:35.918Z,38.20
2023-01-18T01:11:10.950Z,42.40
2023-01-18T01:14:01.266Z,36.40
2023-01-18T01:16:51.808Z,48.50
2023-01-18T01:19:41.854Z,46.70
2023-01-18T01:22:32.174Z,49.60
2023-01-18T01:25:22.109Z,47.70
2023-01-18T01:27:54.673Z,46.90
2023-01-18T01:30:27.047Z,47.80
2023-01-18T01:32:59.555Z,47.20
2023-01-18T01:35:32.012Z,40.90
2023-01-18T01:38:04.483Z,36.60
2023-01-18T01:40:36.885Z,29.60
2023-01-18T01:43:14.630Z,26.20
2023-01-18T01:45:47.074Z,27.20
2023-01-18T01:48:19.532Z,24.80
2023-01-18T01:50:52.135Z,22.40
2023-01-18T01:53:25.682Z,22.90
2023-01-18T01:55:58.061Z,22.00
2023-01-18T01:58:32.920Z,23.20
2023-01-18T02:01:05.378Z,21.50
2023-01-18T02:03:42.712Z,21.10
2023-01-18T02:06:31.689Z,23.00
2023-01-18T02:09:06.548Z,24.90
2023-01-18T02:11:39.281Z,27.10
2023-01-18T02:14:15.880Z,24.60
2023-01-18T02:17:05.913Z,25.30
2023-01-18T02:20:00.739Z,26.40
2023-01-18T02:23:00.336Z,28.80
2023-01-18T02:26:17.423Z,32.30
2023-01-18T02:28:57.807Z,26.80
2023-01-18T02:31:35.660Z,25.90
2023-01-18T02:34:16.637Z,23.80
2023-01-18T02:36:58.336Z,28.50
2023-01-18T02:39:39.516Z,25.70
2023-01-18T02:42:37.022Z,29.10
2023-01-18T02:45:34.982Z,23.50
2023-01-18T02:48:09.778Z,26.80
2023-01-18T02:50:42.513Z,25.80
2023-01-18T02:53:16.924Z,29.00
2023-01-18T02:55:55.823Z,29.00
2023-01-18T02:58:32.938Z,25.10
2023-01-18T03:01:10.703Z,25.80
2023-01-18T03:03:47.688Z,26.30
2023-01-18T03:06:22.574Z,25.10
2023-01-18T03:08:56.772Z,25.10
2023-01-18T03:11:39.630Z,22.60
2023-01-18T03:14:24.069Z,23.40
2023-01-18T03:17:01.888Z,27.90
2023-01-18T03:19:59.577Z,25.10
2023-01-18T03:22:54.654Z,25.30
2023-01-18T03:25:29.872Z,22.90
2023-01-18T03:31:14.513Z,23.90
2023-01-18T03:33:53.017Z,26.50
2023-01-18T03:36:29.746Z,20.40
2023-01-18T03:39:06.040Z,24.30
2023-01-18T03:41:41.190Z,29.10
2023-01-18T03:46:46.639Z,24.10
2023-01-18T03:49:19.727Z,23.80
2023-01-18T03:52:02.850Z,27.90
2023-01-18T03:54:41.144Z,25.80
2023-01-18T03:57:20.860Z,25.20
2023-01-18T03:59:53.744Z,23.80
2023-01-18T04:02:27.936Z,26.00
2023-01-18T04:05:03.727Z,25.40
2023-01-18T04:07:36.220Z,24.00
2023-01-18T04:10:10.009Z,27.10
2023-01-18T04:12:42.675Z,29.80
2023-01-18T04:15:15.521Z,25.50
2023-01-18T04:17:49.857Z,26.90
2023-01-18T04:20:22.457Z,28.20
2023-01-18T04:22:56.350Z,26.00
2023-01-18T04:25:29.022Z,37.40
2023-01-18T04:28:01.532Z,35.00
2023-01-18T04:30:33.843Z,32.40
2023-01-18T04:33:06.311Z,27.30
2023-01-18T04:35:38.667Z,27.80
2023-01-18T04:38:11.028Z,32.50
2023-01-18T04:40:43.549Z,25.80
2023-01-18T04:43:16.019Z,26.70
2023-01-18T04:45:55.903Z,29.80
2023-01-18T04:48:29.035Z,29.10
2023-01-18T04:51:01.405Z,28.90
2023-01-18T04:53:35.874Z,27.70
2023-01-18T04:56:08.918Z,32.50
2023-01-18T04:58:41.390Z,37.00
2023-01-18T05:01:14.637Z,59.50
2023-01-18T05:03:47.294Z,40.70
2023-01-18T05:06:21.160Z,36.20
2023-01-18T05:08:53.776Z,31.70
2023-01-18T05:11:26.125Z,34.40
2023-01-18T05:13:58.470Z,29.50
2023-01-18T05:16:31.107Z,62.40
2023-01-18T05:19:03.626Z,66.70
2023-01-18T05:21:35.955Z,62.80
2023-01-18T05:24:08.970Z,59.00
2023-01-18T05:26:41.334Z,79.60
2023-01-18T05:29:13.685Z,45.10
2023-01-18T05:31:46.294Z,44.30
2023-01-18T05:34:18.892Z,36.10
2023-01-18T05:36:51.341Z,31.70
2023-01-18T05:39:23.736Z,43.70
2023-01-18T05:41:56.898Z,34.00
2023-01-18T05:44:30.585Z,73.00
2023-01-18T05:47:02.980Z,63.40
2023-01-18T05:49:35.350Z,64.50
2023-01-18T05:52:08.468Z,59.70
2023-01-18T05:54:40.715Z,74.70
2023-01-18T05:57:13.092Z,75.40
2023-01-18T05:59:45.493Z,65.90
2023-01-18T06:02:18.467Z,77.40
2023-01-18T06:04:50.937Z,85.40
2023-01-18T06:07:23.297Z,93.40
2023-01-18T06:09:55.654Z,81.00
2023-01-18T06:12:28.096Z,54.80
2023-01-18T06:15:00.685Z,55.20
2023-01-18T06:17:34.376Z,60.60
2023-01-18T06:20:08.337Z,43.70
2023-01-18T06:22:40.941Z,51.70
2023-01-18T06:25:13.650Z,36.70
2023-01-18T06:27:45.948Z,31.40
2023-01-18T06:30:21.745Z,29.30
2023-01-18T06:32:54.502Z,39.50
2023-01-18T06:35:27.054Z,101.10
2023-01-18T06:37:59.402Z,92.80
2023-01-18T06:40:32.174Z,66.00
2023-01-18T06:43:04.562Z,81.70
2023-01-18T06:45:37.690Z,46.80
2023-01-18T06:48:10.381Z,34.90
2023-01-18T06:50:42.754Z,46.60
2023-01-18T06:53:15.207Z,105.90
2023-01-18T06:55:57.011Z,224.00
2023-01-18T06:58:31.186Z,97.10
2023-01-18T07:01:04.405Z,69.00
2023-01-18T07:03:37.177Z,56.50
2023-01-18T07:06:09.718Z,102.80
2023-01-18T07:08:42.239Z,102.10
2023-01-18T07:11:15.707Z,145.90
2023-01-18T07:13:49.616Z,129.60
2023-01-18T07:16:22.212Z,138.50
2023-01-18T07:18:54.575Z,111.10
2023-01-18T07:21:29.887Z,62.20
2023-01-18T07:24:02.659Z,36.50
2023-01-18T07:26:35.205Z,68.30
2023-01-18T07:29:09.288Z,64.20
2023-01-18T07:31:41.717Z,50.10
2023-01-18T07:34:14.544Z,62.00
2023-01-18T07:36:47.024Z,58.70
2023-01-18T07:39:19.369Z,67.20
2023-01-18T07:41:51.743Z,59.30
2023-01-18T07:44:24.092Z,48.90
2023-01-18T07:46:56.415Z,77.80
2023-01-18T07:49:28.840Z,66.70
2023-01-18T07:52:01.237Z,59.70
2023-01-18T07:54:33.566Z,52.20
2023-01-18T07:57:06.163Z,50.00
2023-01-18T07:59:40.107Z,42.10
2023-01-18T08:02:14.643Z,42.10
2023-01-18T08:04:51.229Z,52.30
2023-01-18T08:07:23.824Z,47.50
2023-01-18T08:09:57.959Z,61.00
2023-01-18T08:12:30.509Z,39.40
2023-01-18T08:15:02.857Z,41.20
2023-01-18T08:17:35.334Z,41.80
2023-01-18T08:20:10.650Z,44.80
2023-01-18T08:22:43.050Z,39.80
2023-01-18T08:25:17.471Z,35.50
2023-01-18T08:27:49.895Z,41.70
2023-01-18T08:30:23.724Z,47.00
2023-01-18T08:32:57.796Z,57.40
2023-01-18T08:35:31.963Z,60.70
2023-01-18T08:38:04.659Z,51.50
2023-01-18T08:40:37.267Z,81.40
2023-01-18T08:43:10.988Z,71.10
2023-01-18T08:45:43.494Z,56.30
2023-01-18T08:48:15.766Z,40.60
2023-01-18T08:50:50.141Z,51.30
2023-01-18T08:53:23.821Z,52.00
2023-01-18T08:55:56.263Z,61.70
2023-01-18T08:58:28.681Z,86.20
2023-01-18T09:01:01.119Z,194.30
2023-01-18T09:03:33.535Z,272.10
2023-01-18T09:06:12.499Z,162.20
2023-01-18T09:08:47.626Z,69.30
2023-01-18T09:11:20.671Z,45.40
2023-01-18T09:14:02.636Z,75.60
2023-01-18T09:16:35.194Z,43.50
2023-01-18T09:19:07.503Z,60.20
2023-01-18T09:21:40.388Z,79.40
2023-01-18T09:24:13.133Z,93.60
2023-01-18T09:26:46.506Z,56.10
2023-01-18T09:29:19.389Z,203.40
2023-01-18T09:31:54.060Z,132.20
2023-01-18T09:34:26.920Z,99.30
2023-01-18T09:36:59.322Z,77.80
2023-01-18T09:39:40.193Z,64.20
2023-01-18T09:42:23.470Z,81.30
2023-01-18T09:44:59.940Z,100.60
2023-01-18T09:47:36.866Z,94.50
2023-01-18T09:50:17.176Z,67.40
2023-01-18T09:52:58.376Z,46.90
2023-01-18T09:55:43.173Z,59.10
2023-01-18T09:58:33.109Z,58.60
2023-01-18T10:01:09.531Z,54.40
2023-01-18T10:03:53.368Z,63.60
2023-01-18T10:06:29.787Z,56.90
2023-01-18T10:09:06.407Z,70.00
2023-01-18T10:11:48.197Z,60.70
2023-01-18T10:14:42.956Z,73.00
2023-01-18T10:17:19.039Z,52.90
2023-01-18T10:19:51.973Z,57.70
2023-01-18T10:22:30.616Z,49.00
2023-01-18T10:25:07.625Z,46.90
2023-01-18T10:28:14.506Z,51.30
2023-01-18T10:31:01.830Z,51.10
2023-01-18T10:33:41.061Z,61.90
2023-01-18T10:36:18.306Z,55.10
2023-01-18T10:38:53.028Z,127.30
2023-01-18T10:41:29.677Z,87.50
2023-01-18T10:44:02.971Z,66.20
2023-01-18T10:46:35.345Z,61.50
2023-01-18T10:49:09.355Z,80.60
2023-01-18T10:51:41.793Z,136.10
2023-01-18T10:54:27.953Z,83.10
2023-01-18T10:57:09.171Z,115.20
2023-01-18T10:59:43.022Z,87.30
2023-01-18T11:02:23.661Z,61.40
2023-01-18T11:05:03.917Z,41.90
2023-01-18T11:07:36.799Z,47.60
2023-01-18T11:10:27.145Z,38.70
2023-01-18T11:12:59.846Z,179.90
2023-01-18T11:15:33.155Z,79.90
2023-01-18T11:18:10.366Z,76.10
2023-01-18T11:20:48.197Z,45.00
2023-01-18T11:23:25.575Z,39.10
2023-01-18T11:26:04.396Z,56.70
2023-01-18T11:28:45.792Z,66.90
2023-01-18T11:31:22.253Z,61.70
2023-01-18T11:33:56.982Z,51.70
2023-01-18T11:36:41.669Z,51.90
2023-01-18T11:39:32.146Z,39.60
2023-01-18T11:42:26.507Z,46.00
2023-01-18T11:45:20.228Z,43.40
2023-01-18T11:48:03.695Z,29.40
2023-01-18T11:50:43.531Z,32.10
2023-01-18T11:53:24.250Z,36.70
2023-01-18T11:56:06.147Z,30.50
2023-01-18T11:58:39.205Z,38.80
2023-01-18T12:01:27.911Z,37.60
2023-01-18T12:04:05.386Z,36.20
2023-01-18T12:06:49.302Z,93.00
2023-01-18T12:09:44.362Z,82.00
2023-01-18T12:12:38.060Z,88.00
2023-01-18T12:15:28.478Z,39.20
2023-01-18T12:18:19.498Z,129.20
2023-01-18T12:21:01.161Z,83.10
2023-01-18T12:23:50.695Z,66.10
2023-01-18T12:26:43.046Z,51.40
2023-01-18T12:29:52.744Z,69.30
2023-01-18T12:32:42.806Z,74.10
2023-01-18T12:35:29.054Z,55.10
2023-01-18T12:38:13.720Z,59.70
2023-01-18T12:40:57.897Z,74.40
2023-01-18T12:43:43.936Z,45.00
2023-01-18T12:46:21.157Z,45.90
2023-01-18T12:48:57.849Z,73.00
2023-01-18T12:51:35.378Z,239.20
2023-01-18T12:54:14.523Z,90.40
2023-01-18T12:56:50.482Z,70.00
2023-01-18T12:59:25.884Z,62.30
2023-01-18T13:02:05.422Z,53.20
2023-01-18T13:04:44.755Z,75.20
2023-01-18T13:07:21.884Z,62.70
2023-01-18T13:09:54.743Z,53.10
2023-01-18T13:12:28.782Z,67.50
2023-01-18T13:15:08.636Z,51.80
2023-01-18T13:17:46.994Z,45.20
2023-01-18T13:20:26.609Z,39.50
2023-01-18T13:23:10.093Z,43.70
2023-01-18T13:25:52.092Z,44.40
2023-01-18T13:28:27.563Z,42.90
2023-01-18T13:31:04.911Z,72.40
2023-01-18T13:33:40.872Z,51.90
2023-01-18T13:36:17.427Z,63.30
2023-01-18T13:38:55.588Z,56.10
2023-01-18T13:41:30.452Z,57.50
2023-01-18T13:44:26.974Z,59.70
2023-01-18T13:47:02.009Z,57.70
2023-01-18T13:49:38.607Z,52.50
2023-01-18T13:52:35.706Z,41.40
2023-01-18T13:55:31.319Z,36.40
2023-01-18T13:58:03.972Z,37.70
2023-01-18T14:00:47.351Z,42.60
2023-01-18T14:03:26.189Z,66.10
2023-01-18T14:05:59.867Z,77.90
2023-01-18T14:08:34.521Z,54.90
2023-01-18T14:11:09.514Z,56.70
2023-01-18T14:14:03.802Z,43.20
2023-01-18T14:16:39.793Z,59.50
2023-01-18T14:19:18.299Z,57.60
2023-01-18T14:22:15.153Z,75.80
2023-01-18T14:25:05.641Z,50.30
2023-01-18T14:27:43.199Z,50.20
2023-01-18T14:30:25.907Z,51.20
2023-01-18T14:33:02.943Z,48.50
2023-01-18T14:35:35.491Z,45.00
2023-01-18T14:38:18.577Z,42.10
2023-01-18T14:40:53.888Z,36.90
2023-01-18T14:43:30.827Z,56.80
2023-01-18T14:46:06.776Z,56.30
2023-01-18T14:48:51.616Z,38.40
2023-01-18T14:51:26.723Z,28.20
2023-01-18T14:56:34.949Z,32.90
2023-01-18T14:59:22.024Z,31.70
2023-01-18T15:01:59.590Z,34.50
2023-01-18T15:04:36.237Z,33.20
2023-01-18T15:07:11.298Z,31.20
2023-01-18T15:09:45.819Z,31.80
2023-01-18T15:12:23.083Z,33.70
2023-01-18T15:14:55.697Z,30.60
2023-01-18T15:17:29.131Z,30.40
2023-01-18T15:20:07.801Z,31.70
2023-01-18T15:22:42.222Z,36.30
2023-01-18T15:25:24.483Z,31.90
2023-01-18T15:27:59.804Z,30.60
2023-01-18T15:30:34.370Z,32.60
2023-01-18T15:33:07.127Z,39.80
2023-01-18T15:35:39.857Z,32.00
2023-01-18T15:38:13.462Z,32.20
2023-01-18T15:40:57.511Z,56.50
2023-01-18T15:43:37.026Z,37.30
2023-01-18T15:46:14.127Z,30.70
2023-01-18T15:48:51.672Z,33.20
2023-01-18T15:51:44.770Z,32.20
2023-01-18T15:54:22.459Z,32.70
2023-01-18T15:56:57.186Z,36.00
2023-01-18T15:59:30.409Z,35.50
2023-01-18T16:02:20.220Z,35.80
2023-01-18T16:05:11.271Z,40.10
2023-01-18T16:07:43.668Z,61.20
2023-01-18T16:10:30.444Z,74.80
2023-01-18T16:13:30.710Z,59.40
2023-01-18T16:16:23.110Z,52.80
2023-01-18T16:19:07.179Z,109.90
2023-01-18T16:21:48.734Z,89.00
2023-01-18T16:24:30.530Z,137.90
2023-01-18T16:27:11.271Z,126.90
2023-01-18T16:29:46.631Z,106.90
2023-01-18T16:35:11.184Z,121.50
2023-01-18T16:37:45.324Z,107.10
2023-01-18T16:40:21.226Z,94.60
2023-01-18T16:43:02.084Z,96.70
2023-01-18T16:45:37.672Z,114.80
2023-01-18T16:48:18.081Z,92.50
2023-01-18T16:50:51.680Z,78.40
2023-01-18T16:53:24.443Z,94.70
2023-01-18T16:55:57.451Z,88.70
2023-01-18T16:58:29.908Z,64.90
2023-01-18T17:01:06.967Z,56.00
2023-01-18T17:03:40.426Z,62.00
2023-01-18T17:06:17.905Z,63.10
2023-01-18T17:08:50.844Z,96.60
2023-01-18T17:11:23.339Z,60.00
2023-01-18T17:13:55.787Z,51.60
2023-01-18T17:16:28.158Z,62.70
2023-01-18T17:19:00.614Z,115.30
2023-01-18T17:21:33.085Z,85.10
2023-01-18T17:24:06.363Z,69.60
2023-01-18T17:26:39.367Z,90.10
2023-01-18T17:29:17.994Z,62.40
2023-01-18T17:31:52.990Z,58.60
2023-01-18T17:34:29.252Z,74.30
2023-01-18T17:37:03.307Z,68.30
2023-01-18T17:39:44.109Z,46.10
2023-01-18T17:42:30.168Z,51.10
2023-01-18T17:45:06.793Z,56.00
2023-01-18T17:47:40.106Z,57.30
2023-01-18T17:50:21.727Z,43.80
2023-01-18T17:52:55.401Z,50.20
2023-01-18T17:55:34.630Z,31.90
2023-01-18T17:58:07.600Z,30.90
2023-01-18T18:00:40.070Z,36.50
2023-01-18T18:03:13.411Z,34.20
2023-01-18T18:05:46.080Z,29.50
2023-01-18T18:08:19.080Z,61.20
2023-01-18T18:10:52.102Z,31.20
2023-01-18T18:13:25.114Z,57.90
2023-01-18T18:15:57.930Z,72.80
2023-01-18T18:18:30.588Z,72.50
2023-01-18T18:21:05.523Z,36.40
2023-01-18T18:23:38.442Z,30.40
2023-01-18T18:26:10.892Z,31.20
2023-01-18T18:28:43.547Z,22.80
2023-01-18T18:31:17.555Z,20.10
2023-01-18T18:33:54.925Z,23.20
2023-01-18T18:36:28.175Z,22.50
2023-01-18T18:39:03.413Z,23.20
2023-01-18T18:41:36.116Z,28.50
2023-01-18T18:44:08.384Z,29.80
2023-01-18T18:46:41.314Z,29.40
2023-01-18T18:49:13.823Z,25.10
2023-01-18T18:51:46.236Z,20.70
2023-01-18T18:54:18.796Z,25.80
2023-01-18T18:56:51.425Z,21.80
2023-01-18T18:59:23.979Z,59.10
2023-01-18T19:01:57.878Z,43.80
2023-01-18T19:04:30.593Z,76.90
2023-01-18T19:07:03.272Z,239.90
2023-01-18T19:09:36.008Z,243.40
2023-01-18T19:12:08.854Z,78.60
2023-01-18T19:14:41.136Z,51.50
2023-01-18T19:17:18.570Z,32.50
2023-01-18T19:19:54.385Z,42.80
2023-01-18T19:22:26.855Z,313.50
2023-01-18T19:24:59.846Z,403.20
2023-01-18T19:27:32.191Z,299.40
2023-01-18T19:30:10.718Z,165.50
2023-01-18T19:32:43.236Z,83.90
2023-01-18T19:35:15.660Z,120.50
2023-01-18T19:37:48.607Z,416.90
2023-01-18T19:40:22.046Z,419.50
2023-01-18T19:42:56.164Z,552.60
2023-01-18T19:45:29.557Z,694.40
2023-01-18T19:48:03.001Z,607.90
2023-01-18T19:50:35.530Z,428.80
2023-01-18T19:53:07.995Z,216.80
2023-01-18T19:55:41.759Z,177.00
2023-01-18T19:58:14.490Z,118.50
2023-01-18T20:00:46.999Z,108.50
2023-01-18T20:03:19.731Z,74.40
2023-01-18T20:05:52.223Z,75.60
2023-01-18T20:08:24.699Z,83.40
2023-01-18T20:10:57.121Z,166.90
2023-01-18T20:13:30.111Z,399.20
2023-01-18T20:16:02.596Z,496.90
2023-01-18T20:18:36.370Z,470.70
2023-01-18T20:21:10.441Z,286.80
2023-01-18T20:23:44.092Z,273.20
2023-01-18T20:26:31.057Z,169.10
2023-01-18T20:29:08.106Z,249.20
2023-01-18T20:31:44.613Z,69.90
2023-01-18T20:34:21.129Z,41.30
2023-01-18T20:36:53.597Z,50.50
2023-01-18T20:39:26.157Z,39.50
2023-01-18T20:41:58.833Z,39.10
2023-01-18T20:44:31.254Z,50.10
2023-01-18T20:47:03.959Z,48.00
2023-01-18T20:49:38.793Z,56.00
2023-01-18T20:52:11.737Z,52.10
2023-01-18T20:54:44.072Z,44.60
2023-01-18T20:57:17.853Z,38.90
2023-01-18T20:59:50.260Z,65.60
2023-01-18T21:02:22.883Z,42.10
2023-01-18T21:04:55.433Z,42.90
2023-01-18T21:07:29.780Z,43.90
2023-01-18T21:10:02.278Z,42.50
2023-01-18T21:12:34.606Z,39.70
2023-01-18T21:15:09.165Z,39.00
2023-01-18T21:17:41.551Z,41.40
2023-01-18T21:20:15.989Z,77.40
2023-01-18T21:22:48.297Z,274.40
2023-01-18T21:25:20.793Z,572.00
2023-01-18T21:27:53.577Z,148.40
2023-01-18T21:30:29.953Z,56.70
2023-01-18T21:33:04.692Z,70.30
2023-01-18T21:35:37.144Z,188.30
2023-01-18T21:38:09.766Z,90.60
2023-01-18T21:40:42.352Z,54.70
2023-01-18T21:43:38.057Z,93.90
2023-01-18T21:46:12.531Z,74.20
2023-01-18T21:48:44.999Z,71.40
2023-01-18T21:51:43.588Z,76.00
2023-01-18T21:54:16.084Z,111.60
2023-01-18T21:56:49.210Z,69.40
2023-01-18T21:59:21.623Z,61.40
2023-01-18T22:01:54.101Z,41.10
2023-01-18T22:04:44.391Z,38.00
2023-01-18T22:07:17.682Z,42.60
2023-01-18T22:10:03.412Z,44.70
2023-01-18T22:12:39.143Z,42.50
2023-01-18T22:15:14.032Z,45.70
2023-01-18T22:17:46.330Z,46.30
2023-01-18T22:20:19.655Z,43.90
2023-01-18T22:22:52.070Z,44.00
2023-01-18T22:25:24.420Z,48.70
2023-01-18T22:27:56.786Z,45.40
2023-01-18T22:30:29.372Z,43.40
2023-01-18T22:33:01.716Z,47.80
2023-01-18T22:35:34.535Z,44.00
2023-01-18T22:38:07.238Z,44.40
2023-01-18T22:40:39.762Z,41.40
2023-01-18T22:43:12.239Z,45.40
2023-01-18T22:45:44.686Z,44.50
2023-01-18T22:48:16.963Z,46.60
2023-01-18T22:50:55.701Z,45.40
2023-01-18T22:53:31.457Z,43.80
2023-01-18T22:56:06.319Z,38.20
2023-01-18T22:58:39.192Z,45.30
2023-01-18T23:01:19.442Z,45.60
2023-01-18T23:03:52.855Z,43.70
2023-01-18T23:06:26.358Z,42.20
2023-01-18T23:08:59.053Z,40.70
2023-01-18T23:11:32.938Z,43.00
2023-01-18T23:14:23.990Z,48.10
2023-01-18T23:17:14.196Z,82.90
2023-01-18T23:19:46.699Z,49.70
2023-01-18T23:22:19.088Z,74.40
2023-01-18T23:24:51.590Z,59.10
2023-01-18T23:27:24.294Z,70.20
2023-01-18T23:29:58.898Z,60.50
2023-01-18T23:32:31.736Z,43.30
2023-01-18T23:35:05.242Z,48.40
2023-01-18T23:37:37.601Z,50.80
2023-01-18T23:40:31.325Z,45.30
2023-01-18T23:43:21.259Z,43.30
2023-01-18T23:46:11.646Z,43.30
2023-01-18T23:49:01.450Z,47.00
2023-01-18T23:51:51.414Z,45.00
2023-01-18T23:54:23.823Z,48.90
2023-01-18T23:56:56.168Z,47.50
2023-01-18T23:59:28.518Z,53.20
